createdAt,value
2023-03-02T00:01:52.581Z,3.90
2023-03-02T00:04:31.455Z,3.90
2023-03-02T00:07:01.720Z,3.90
2023-03-02T00:09:29.583Z,3.90
2023-03-02T00:11:56.933Z,3.90
2023-03-02T00:14:23.871Z,3.90
2023-03-02T00:16:50.772Z,3.80
2023-03-02T00:19:17.672Z,3.90
2023-03-02T00:21:44.529Z,3.90
2023-03-02T00:24:12.293Z,3.90
2023-03-02T00:26:39.187Z,3.90
2023-03-02T00:29:06.056Z,3.90
2023-03-02T00:31:33.544Z,3.80
2023-03-02T00:34:00.474Z,3.90
2023-03-02T00:36:27.381Z,3.90
2023-03-02T00:38:54.305Z,3.80
2023-03-02T00:41:21.963Z,3.80
2023-03-02T00:43:50.107Z,3.90
2023-03-02T00:46:20.525Z,3.80
2023-03-02T00:48:47.454Z,3.80
2023-03-02T00:51:15.013Z,3.80
2023-03-02T00:53:42.010Z,3.80
2023-03-02T00:56:10.144Z,3.90
2023-03-02T00:58:40.568Z,3.90
2023-03-02T01:01:11.358Z,3.90
2023-03-02T01:03:41.908Z,3.90
2023-03-02T01:06:18.689Z,3.90
2023-03-02T01:08:45.990Z,3.90
2023-03-02T01:11:22.712Z,3.90
2023-03-02T01:13:51.278Z,3.90
2023-03-02T01:16:18.554Z,3.90
2023-03-02T01:18:45.512Z,3.90
2023-03-02T01:21:15.228Z,3.90
2023-03-02T01:23:42.539Z,3.80
2023-03-02T01:26:10.144Z,3.90
2023-03-02T01:28:37.087Z,3.90
2023-03-02T01:31:04.713Z,3.90
2023-03-02T01:33:32.524Z,3.80
2023-03-02T01:35:59.407Z,3.80
2023-03-02T01:38:27.036Z,3.80
2023-03-02T01:40:53.938Z,3.80
2023-03-02T01:43:20.824Z,3.80
2023-03-02T01:46:05.364Z,3.80
2023-03-02T01:49:02.239Z,3.70
2023-03-02T01:51:43.756Z,3.70
2023-03-02T01:54:23.393Z,3.70
2023-03-02T01:57:00.027Z,3.70
2023-03-02T01:59:29.335Z,3.60
2023-03-02T02:01:58.714Z,3.60
2023-03-02T02:04:28.458Z,3.60
2023-03-02T02:06:59.840Z,3.60
2023-03-02T02:09:30.221Z,3.60
2023-03-02T02:11:57.326Z,3.60
2023-03-02T02:14:24.807Z,3.50
2023-03-02T02:16:53.050Z,3.50
2023-03-02T02:19:54.892Z,3.50
2023-03-02T02:22:39.820Z,3.60
2023-03-02T02:25:15.964Z,3.60
2023-03-02T02:27:43.242Z,3.50
2023-03-02T02:30:13.354Z,3.50
2023-03-02T02:32:41.801Z,3.50
2023-03-02T02:35:20.084Z,3.50
2023-03-02T02:37:55.432Z,3.50
2023-03-02T02:40:39.548Z,3.50
2023-03-02T02:43:10.191Z,3.50
2023-03-02T02:45:37.147Z,3.50
2023-03-02T02:48:04.164Z,3.40
2023-03-02T02:50:35.646Z,3.40
2023-03-02T02:53:11.401Z,3.40
2023-03-02T02:55:41.474Z,3.40
2023-03-02T02:58:33.919Z,3.40
2023-03-02T03:01:01.937Z,3.40
2023-03-02T03:03:32.519Z,3.40
2023-03-02T03:06:05.673Z,3.40
2023-03-02T03:08:41.723Z,3.40
2023-03-02T03:11:16.368Z,3.40
2023-03-02T03:13:44.290Z,3.40
2023-03-02T03:16:15.441Z,3.40
2023-03-02T03:18:51.236Z,3.40
2023-03-02T03:21:18.721Z,3.30
2023-03-02T03:23:45.718Z,3.30
2023-03-02T03:26:12.946Z,3.30
2023-03-02T03:28:39.899Z,3.30
2023-03-02T03:31:07.403Z,3.30
2023-03-02T03:33:34.354Z,3.20
2023-03-02T03:36:01.471Z,3.20
2023-03-02T03:38:29.628Z,3.20
2023-03-02T03:40:56.719Z,3.20
2023-03-02T03:43:23.940Z,3.30
2023-03-02T03:45:53.669Z,3.30
2023-03-02T03:48:20.606Z,3.20
2023-03-02T03:50:48.814Z,3.20
2023-03-02T03:53:15.812Z,3.20
2023-03-02T03:55:42.682Z,3.20
2023-03-02T03:58:09.662Z,3.20
2023-03-02T04:00:36.841Z,3.10
2023-03-02T04:03:08.646Z,3.10
2023-03-02T04:05:35.678Z,3.00
2023-03-02T04:08:03.822Z,3.00
2023-03-02T04:10:31.775Z,3.00
2023-03-02T04:12:58.969Z,3.00
2023-03-02T04:15:26.050Z,3.00
2023-03-02T04:17:53.355Z,3.00
2023-03-02T04:20:24.190Z,3.00
2023-03-02T04:22:55.069Z,3.00
2023-03-02T04:25:25.203Z,2.90
2023-03-02T04:27:55.559Z,2.90
2023-03-02T04:30:26.622Z,2.80
2023-03-02T04:32:54.141Z,2.80
2023-03-02T04:35:22.098Z,2.80
2023-03-02T04:37:49.084Z,2.80
2023-03-02T04:40:17.593Z,2.80
2023-03-02T04:42:44.882Z,2.80
2023-03-02T04:45:12.697Z,2.80
2023-03-02T04:47:39.819Z,2.80
2023-03-02T04:50:07.597Z,2.80
2023-03-02T04:52:34.828Z,2.90
2023-03-02T04:55:01.803Z,2.90
2023-03-02T04:57:28.748Z,2.90
2023-03-02T04:59:55.705Z,2.90
2023-03-02T05:02:22.735Z,2.90
2023-03-02T05:04:49.656Z,2.90
2023-03-02T05:07:16.724Z,2.90
2023-03-02T05:09:43.572Z,2.90
2023-03-02T05:12:10.518Z,2.90
2023-03-02T05:14:37.380Z,2.90
2023-03-02T05:17:04.308Z,2.90
2023-03-02T05:19:31.204Z,2.80
2023-03-02T05:21:58.219Z,2.80
2023-03-02T05:24:25.275Z,2.70
2023-03-02T05:26:52.198Z,2.60
2023-03-02T05:29:19.040Z,2.50
2023-03-02T05:31:46.663Z,2.40
2023-03-02T05:34:16.479Z,2.40
2023-03-02T05:36:45.073Z,2.30
2023-03-02T05:39:13.107Z,2.20
2023-03-02T05:41:40.937Z,2.10
2023-03-02T05:44:09.734Z,2.10
2023-03-02T05:46:37.729Z,2.10
2023-03-02T05:49:04.881Z,2.00
2023-03-02T05:51:31.794Z,1.90
2023-03-02T05:53:58.649Z,1.90
2023-03-02T05:56:25.807Z,2.00
2023-03-02T05:58:52.881Z,2.00
2023-03-02T06:01:19.782Z,2.00
2023-03-02T06:03:46.660Z,1.90
2023-03-02T06:06:14.390Z,2.00
2023-03-02T06:08:42.322Z,2.00
2023-03-02T06:11:09.704Z,2.00
2023-03-02T06:13:37.008Z,2.10
2023-03-02T06:16:04.705Z,2.10
2023-03-02T06:18:31.752Z,2.20
2023-03-02T06:20:58.997Z,2.20
2023-03-02T06:23:25.884Z,2.20
2023-03-02T06:25:52.714Z,2.20
2023-03-02T06:28:20.365Z,2.20
2023-03-02T06:30:52.210Z,2.10
2023-03-02T06:33:21.316Z,2.10
2023-03-02T06:35:48.879Z,2.00
2023-03-02T06:38:15.945Z,2.10
2023-03-02T06:40:43.172Z,2.10
2023-03-02T06:43:10.335Z,2.20
2023-03-02T06:45:37.826Z,2.30
2023-03-02T06:48:05.139Z,2.40
2023-03-02T06:50:32.756Z,2.60
2023-03-02T06:52:59.822Z,2.60
2023-03-02T06:55:26.998Z,2.70
2023-03-02T06:57:53.897Z,2.70
2023-03-02T07:00:26.272Z,2.70
2023-03-02T07:02:54.204Z,2.80
2023-03-02T07:05:21.579Z,2.80
2023-03-02T07:07:48.479Z,2.90
2023-03-02T07:10:15.695Z,2.90
2023-03-02T07:12:43.120Z,2.90
2023-03-02T07:15:14.400Z,3.00
2023-03-02T07:17:43.448Z,3.00
2023-03-02T07:20:12.412Z,3.00
2023-03-02T07:22:39.838Z,3.00
2023-03-02T07:25:07.546Z,3.10
2023-03-02T07:27:34.447Z,3.10
2023-03-02T07:30:01.411Z,3.10
2023-03-02T07:32:28.620Z,3.10
2023-03-02T07:34:55.693Z,3.10
2023-03-02T07:37:22.648Z,3.20
2023-03-02T07:39:49.937Z,3.20
2023-03-02T07:42:17.211Z,3.20
2023-03-02T07:44:47.714Z,3.20
2023-03-02T07:47:14.633Z,3.30
2023-03-02T07:49:41.462Z,3.30
2023-03-02T07:52:08.360Z,3.30
2023-03-02T07:54:35.167Z,3.30
2023-03-02T07:57:02.065Z,3.30
2023-03-02T07:59:29.413Z,3.40
2023-03-02T08:01:57.519Z,3.40
2023-03-02T08:04:25.001Z,3.40
2023-03-02T08:06:52.408Z,3.40
2023-03-02T08:09:19.390Z,3.40
2023-03-02T08:11:47.866Z,3.40
2023-03-02T08:14:14.877Z,3.40
2023-03-02T08:16:41.987Z,3.40
2023-03-02T08:19:09.099Z,3.40
2023-03-02T08:21:36.084Z,3.50
2023-03-02T08:24:03.651Z,3.50
2023-03-02T08:26:30.651Z,3.60
2023-03-02T08:28:58.289Z,3.50
2023-03-02T08:31:25.326Z,3.60
2023-03-02T08:33:52.248Z,3.50
2023-03-02T08:36:20.344Z,3.60
2023-03-02T08:38:48.321Z,3.60
2023-03-02T08:41:20.160Z,3.70
2023-03-02T08:43:47.784Z,3.60
2023-03-02T08:46:17.268Z,3.60
2023-03-02T08:48:44.784Z,3.70
2023-03-02T08:51:21.476Z,3.70
2023-03-02T08:53:50.571Z,3.70
2023-03-02T08:56:23.765Z,3.70
2023-03-02T08:58:51.826Z,3.80
2023-03-02T09:01:23.920Z,3.80
2023-03-02T09:03:51.955Z,3.80
2023-03-02T09:06:19.100Z,3.80
2023-03-02T09:08:46.152Z,3.80
2023-03-02T09:11:13.158Z,3.90
2023-03-02T09:13:40.045Z,3.90
2023-03-02T09:16:08.602Z,4.00
2023-03-02T09:18:36.406Z,4.00
2023-03-02T09:21:04.000Z,4.00
2023-03-02T09:23:32.330Z,4.10
2023-03-02T09:25:59.547Z,4.10
2023-03-02T09:28:26.604Z,4.00
2023-03-02T09:31:02.769Z,4.00
2023-03-02T09:33:30.790Z,3.90
2023-03-02T09:35:57.920Z,3.80
2023-03-02T09:38:24.924Z,3.90
2023-03-02T09:40:57.778Z,3.90
2023-03-02T09:43:31.512Z,3.90
2023-03-02T09:46:34.718Z,4.00
2023-03-02T09:49:26.024Z,4.00
2023-03-02T09:52:12.234Z,4.00
2023-03-02T09:54:40.232Z,4.00
2023-03-02T09:57:23.961Z,4.00
2023-03-02T10:00:19.502Z,4.00
2023-03-02T10:02:53.939Z,4.10
2023-03-02T10:05:30.539Z,4.10
2023-03-02T10:07:59.361Z,4.20
2023-03-02T10:10:35.730Z,4.30
2023-03-02T10:13:02.651Z,4.30
2023-03-02T10:15:55.444Z,4.20
2023-03-02T10:18:41.182Z,4.30
2023-03-02T10:21:21.638Z,4.40
2023-03-02T10:23:54.851Z,4.30
2023-03-02T10:26:31.751Z,4.30
2023-03-02T10:29:18.931Z,4.40
2023-03-02T10:31:47.187Z,4.40
2023-03-02T10:34:14.808Z,4.40
2023-03-02T10:36:44.915Z,4.50
2023-03-02T10:39:16.593Z,4.40
2023-03-02T10:41:49.687Z,4.50
2023-03-02T10:44:21.298Z,4.60
2023-03-02T10:46:48.285Z,4.50
2023-03-02T10:49:30.745Z,4.60
2023-03-02T10:51:57.588Z,4.80
2023-03-02T10:54:26.106Z,4.80
2023-03-02T10:56:57.157Z,4.70
2023-03-02T10:59:45.449Z,4.80
2023-03-02T11:02:25.135Z,4.80
2023-03-02T11:04:58.096Z,4.80
2023-03-02T11:07:29.510Z,4.80
2023-03-02T11:10:03.686Z,4.80
2023-03-02T11:12:33.107Z,4.70
2023-03-02T11:15:25.702Z,4.70
2023-03-02T11:18:34.788Z,4.80
2023-03-02T11:21:06.434Z,4.80
2023-03-02T11:23:48.698Z,4.80
2023-03-02T11:26:26.105Z,4.90
2023-03-02T11:29:04.613Z,4.70
2023-03-02T11:32:06.005Z,4.70
2023-03-02T11:34:46.714Z,4.80
2023-03-02T11:37:24.096Z,4.80
2023-03-02T11:40:01.781Z,4.80
2023-03-02T11:42:39.019Z,4.80
2023-03-02T11:45:17.436Z,4.80
2023-03-02T11:48:08.819Z,4.70
2023-03-02T11:50:50.199Z,4.70
2023-03-02T11:53:19.364Z,4.70
2023-03-02T11:55:49.511Z,4.80
2023-03-02T11:58:28.344Z,4.70
2023-03-02T12:00:55.951Z,4.80
2023-03-02T12:03:31.456Z,4.80
2023-03-02T12:06:05.180Z,4.80
2023-03-02T12:08:43.317Z,4.90
2023-03-02T12:11:19.012Z,5.00
2023-03-02T12:13:55.000Z,5.00
2023-03-02T12:16:43.334Z,5.10
2023-03-02T12:19:28.442Z,5.00
2023-03-02T12:22:06.872Z,4.90
2023-03-02T12:24:36.299Z,4.90
2023-03-02T12:27:26.297Z,4.90
2023-03-02T12:30:18.724Z,4.90
2023-03-02T12:32:58.871Z,5.00
2023-03-02T12:35:26.893Z,5.00
2023-03-02T12:38:23.623Z,5.00
2023-03-02T12:41:21.586Z,4.90
2023-03-02T12:44:46.801Z,5.00
2023-03-02T12:47:21.762Z,5.00
2023-03-02T12:49:54.524Z,4.90
2023-03-02T12:52:28.294Z,5.00
2023-03-02T12:55:27.997Z,5.00
2023-03-02T12:57:57.429Z,5.00
2023-03-02T13:00:30.279Z,5.00
2023-03-02T13:02:58.713Z,5.00
2023-03-02T13:05:31.482Z,5.10
2023-03-02T13:08:05.050Z,5.10
2023-03-02T13:10:40.470Z,5.00
2023-03-02T13:13:21.331Z,4.90
2023-03-02T13:16:00.290Z,5.00
2023-03-02T13:18:32.700Z,5.00
2023-03-02T13:21:01.463Z,5.10
2023-03-02T13:23:30.300Z,5.20
2023-03-02T13:25:59.783Z,5.20
2023-03-02T13:28:27.667Z,5.20
2023-03-02T13:31:06.067Z,5.20
2023-03-02T13:33:36.089Z,5.20
2023-03-02T13:36:04.055Z,5.20
2023-03-02T13:38:37.255Z,5.20
2023-03-02T13:41:04.604Z,5.20
2023-03-02T13:43:40.609Z,5.30
2023-03-02T13:46:25.770Z,5.40
2023-03-02T13:49:10.320Z,5.40
2023-03-02T13:51:44.013Z,5.50
2023-03-02T13:54:27.832Z,5.50
2023-03-02T13:56:56.869Z,5.50
2023-03-02T13:59:24.249Z,5.50
2023-03-02T14:01:51.648Z,5.60
2023-03-02T14:04:23.995Z,5.50
2023-03-02T14:06:52.425Z,5.60
2023-03-02T14:09:19.637Z,5.70
2023-03-02T14:11:53.235Z,5.80
2023-03-02T14:14:23.386Z,5.90
2023-03-02T14:16:50.861Z,6.00
2023-03-02T14:19:18.643Z,6.00
2023-03-02T14:21:46.599Z,6.00
2023-03-02T14:24:13.599Z,6.00
2023-03-02T14:26:47.169Z,6.00
2023-03-02T14:29:24.946Z,6.00
2023-03-02T14:31:53.439Z,6.10
2023-03-02T14:34:20.579Z,6.20
2023-03-02T14:36:50.953Z,6.40
2023-03-02T14:39:17.670Z,6.60
2023-03-02T14:41:53.288Z,6.60
2023-03-02T14:44:21.116Z,6.70
2023-03-02T14:46:48.033Z,6.70
2023-03-02T14:49:14.914Z,6.60
2023-03-02T14:51:45.034Z,6.50
2023-03-02T14:54:17.352Z,6.50
2023-03-02T14:56:44.539Z,6.50
2023-03-02T14:59:14.403Z,6.60
2023-03-02T15:01:44.630Z,6.80
2023-03-02T15:04:11.640Z,7.00
2023-03-02T15:06:41.204Z,7.10
2023-03-02T15:09:08.540Z,7.30
2023-03-02T15:11:35.863Z,7.30
2023-03-02T15:14:02.903Z,7.40
2023-03-02T15:16:29.887Z,7.50
2023-03-02T15:18:58.832Z,7.50
2023-03-02T15:21:27.013Z,7.40
2023-03-02T15:23:53.955Z,7.20
2023-03-02T15:26:20.860Z,6.90
2023-03-02T15:28:51.525Z,6.70
2023-03-02T15:31:19.058Z,6.50
2023-03-02T15:33:46.317Z,6.30
2023-03-02T15:36:14.442Z,6.20
2023-03-02T15:38:41.440Z,6.10
2023-03-02T15:41:12.011Z,6.00
2023-03-02T15:43:39.547Z,5.90
2023-03-02T15:46:09.328Z,5.80
2023-03-02T15:48:37.312Z,5.70
2023-03-02T15:51:08.207Z,5.60
2023-03-02T15:53:38.360Z,5.50
2023-03-02T15:56:10.999Z,5.50
2023-03-02T15:58:38.024Z,5.40
2023-03-02T16:01:09.190Z,5.40
2023-03-02T16:03:36.362Z,5.40
2023-03-02T16:06:04.267Z,5.30
2023-03-02T16:08:31.299Z,5.20
2023-03-02T16:11:00.126Z,5.20
2023-03-02T16:13:27.404Z,5.20
2023-03-02T16:15:54.298Z,5.20
2023-03-02T16:18:21.464Z,5.20
2023-03-02T16:20:48.927Z,5.10
2023-03-02T16:23:16.086Z,5.10
2023-03-02T16:25:44.156Z,5.00
2023-03-02T16:28:11.948Z,5.00
2023-03-02T16:30:39.780Z,4.90
2023-03-02T16:33:09.938Z,4.90
2023-03-02T16:35:37.662Z,4.90
2023-03-02T16:38:05.618Z,4.90
2023-03-02T16:40:33.309Z,4.80
2023-03-02T16:43:00.186Z,4.90
2023-03-02T16:45:27.110Z,4.90
2023-03-02T16:47:54.156Z,4.90
2023-03-02T16:50:21.147Z,4.90
2023-03-02T16:52:48.035Z,4.90
2023-03-02T16:55:18.101Z,4.90
2023-03-02T16:57:45.081Z,4.90
2023-03-02T17:00:16.056Z,4.90
2023-03-02T17:02:43.574Z,4.90
2023-03-02T17:05:12.166Z,4.90
2023-03-02T17:07:39.324Z,4.90
2023-03-02T17:10:07.809Z,4.90
2023-03-02T17:12:34.708Z,4.80
2023-03-02T17:15:01.591Z,4.80
2023-03-02T17:17:28.507Z,4.80
2023-03-02T17:19:55.322Z,4.70
2023-03-02T17:22:22.191Z,4.60
2023-03-02T17:24:49.046Z,4.50
2023-03-02T17:27:24.430Z,4.50
2023-03-02T17:29:52.114Z,4.40
2023-03-02T17:32:19.329Z,4.40
2023-03-02T17:34:47.019Z,4.40
2023-03-02T17:37:14.718Z,4.40
2023-03-02T17:39:41.657Z,4.50
2023-03-02T17:42:08.751Z,4.60
2023-03-02T17:44:38.761Z,4.70
2023-03-02T17:47:08.162Z,4.70
2023-03-02T17:49:38.692Z,4.70
2023-03-02T17:52:05.772Z,4.80
2023-03-02T17:54:32.658Z,4.80
2023-03-02T17:56:59.944Z,4.80
2023-03-02T17:59:26.859Z,4.80
2023-03-02T18:01:53.801Z,4.80
2023-03-02T18:04:20.874Z,4.80
2023-03-02T18:06:47.942Z,4.80
2023-03-02T18:09:15.108Z,4.90
2023-03-02T18:11:42.409Z,4.90
2023-03-02T18:14:16.027Z,4.90
2023-03-02T18:16:43.442Z,4.90
2023-03-02T18:19:10.612Z,4.80
2023-03-02T18:21:40.155Z,4.80
2023-03-02T18:24:08.148Z,4.90
2023-03-02T18:26:35.021Z,4.90
2023-03-02T18:29:01.924Z,5.00
2023-03-02T18:31:29.031Z,5.00
2023-03-02T18:33:56.851Z,5.00
2023-03-02T18:36:23.961Z,5.00
2023-03-02T18:38:53.099Z,5.00
2023-03-02T18:41:21.210Z,5.00
2023-03-02T18:43:49.131Z,5.00
2023-03-02T18:46:25.696Z,5.00
2023-03-02T18:48:53.921Z,5.00
2023-03-02T18:51:21.819Z,5.00
2023-03-02T18:53:49.259Z,5.10
2023-03-02T18:56:16.314Z,5.00
2023-03-02T18:58:43.555Z,5.00
2023-03-02T19:01:11.016Z,5.00
2023-03-02T19:03:38.669Z,5.00
2023-03-02T19:06:07.397Z,5.00
2023-03-02T19:08:37.753Z,5.00
2023-03-02T19:11:05.217Z,4.90
2023-03-02T19:13:32.719Z,4.90
2023-03-02T19:16:02.036Z,4.80
2023-03-02T19:18:29.911Z,4.80
2023-03-02T19:20:57.659Z,4.80
2023-03-02T19:23:25.191Z,4.80
2023-03-02T19:25:52.878Z,4.80
2023-03-02T19:28:21.694Z,4.70
2023-03-02T19:30:49.823Z,4.70
2023-03-02T19:33:17.463Z,4.70
2023-03-02T19:35:44.850Z,4.60
2023-03-02T19:38:12.743Z,4.60
2023-03-02T19:40:39.990Z,4.60
2023-03-02T19:43:07.124Z,4.60
2023-03-02T19:45:35.691Z,4.50
2023-03-02T19:48:05.701Z,4.50
2023-03-02T19:50:33.003Z,4.50
2023-03-02T19:52:59.979Z,4.50
2023-03-02T19:55:27.303Z,4.60
2023-03-02T19:58:00.131Z,4.50
2023-03-02T20:00:30.272Z,4.50
2023-03-02T20:02:57.682Z,4.50
2023-03-02T20:05:26.138Z,4.40
2023-03-02T20:07:53.978Z,4.40
2023-03-02T20:10:33.891Z,4.40
2023-03-02T20:13:01.562Z,4.30
2023-03-02T20:15:31.019Z,4.30
2023-03-02T20:17:59.500Z,4.30
2023-03-02T20:20:27.037Z,4.20
2023-03-02T20:22:53.892Z,4.20
2023-03-02T20:25:21.127Z,4.20
2023-03-02T20:27:49.198Z,4.20
2023-03-02T20:30:24.718Z,4.20
2023-03-02T20:32:51.721Z,4.20
2023-03-02T20:35:18.829Z,4.10
2023-03-02T20:37:45.817Z,4.10
2023-03-02T20:40:14.188Z,4.20
2023-03-02T20:42:41.929Z,4.20
2023-03-02T20:45:09.780Z,4.10
2023-03-02T20:47:37.198Z,4.10
2023-03-02T20:50:07.859Z,4.10
2023-03-02T20:52:34.919Z,4.20
2023-03-02T20:55:01.830Z,4.10
2023-03-02T20:57:28.763Z,4.10
2023-03-02T20:59:55.708Z,4.10
2023-03-02T21:02:23.184Z,4.00
2023-03-02T21:04:50.136Z,4.00
2023-03-02T21:07:17.248Z,4.00
2023-03-02T21:09:44.677Z,3.90
2023-03-02T21:12:11.997Z,3.90
2023-03-02T21:14:40.486Z,3.90
2023-03-02T21:17:08.427Z,3.90
2023-03-02T21:19:35.756Z,3.90
2023-03-02T21:22:03.626Z,3.90
2023-03-02T21:24:30.530Z,3.90
2023-03-02T21:26:57.489Z,3.80
2023-03-02T21:29:26.637Z,3.80
2023-03-02T21:31:54.383Z,3.80
2023-03-02T21:34:22.379Z,3.80
2023-03-02T21:36:53.543Z,3.80
2023-03-02T21:39:23.609Z,3.70
2023-03-02T21:41:51.647Z,3.70
2023-03-02T21:44:19.394Z,3.70
2023-03-02T21:46:46.696Z,3.70
2023-03-02T21:49:19.902Z,3.70
2023-03-02T21:51:48.981Z,3.70
2023-03-02T21:54:16.746Z,3.70
2023-03-02T21:56:43.687Z,3.70
2023-03-02T21:59:11.761Z,3.60
2023-03-02T22:01:38.691Z,3.60
2023-03-02T22:04:05.856Z,3.70
2023-03-02T22:06:34.289Z,3.70
2023-03-02T22:09:01.708Z,3.70
2023-03-02T22:11:31.928Z,3.60
2023-03-02T22:14:10.387Z,3.60
2023-03-02T22:16:43.214Z,3.60
2023-03-02T22:19:30.111Z,3.60
2023-03-02T22:22:00.174Z,3.60
2023-03-02T22:24:32.670Z,3.60
2023-03-02T22:27:01.927Z,3.50
2023-03-02T22:29:40.302Z,3.50
2023-03-02T22:32:31.049Z,3.60
2023-03-02T22:35:00.348Z,3.60
2023-03-02T22:37:34.028Z,3.60
2023-03-02T22:40:07.963Z,3.60
2023-03-02T22:42:34.878Z,3.60
2023-03-02T22:45:20.709Z,3.60
2023-03-02T22:47:51.321Z,3.50
2023-03-02T22:50:29.642Z,3.50
2023-03-02T22:52:58.234Z,3.60
2023-03-02T22:55:42.968Z,3.60
2023-03-02T22:58:36.426Z,3.50
2023-03-02T23:01:13.897Z,3.60
2023-03-02T23:03:44.643Z,3.60
2023-03-02T23:06:31.310Z,3.50
2023-03-02T23:09:01.835Z,3.50
2023-03-02T23:11:31.654Z,3.50
2023-03-02T23:14:01.059Z,3.50
2023-03-02T23:16:32.948Z,3.50
2023-03-02T23:19:00.206Z,3.50
2023-03-02T23:21:44.376Z,3.50
2023-03-02T23:24:11.318Z,3.50
2023-03-02T23:26:38.382Z,3.50
2023-03-02T23:29:05.849Z,3.50
2023-03-02T23:31:33.265Z,3.50
2023-03-02T23:34:00.337Z,3.50
2023-03-02T23:36:27.839Z,3.40
2023-03-02T23:38:54.796Z,3.40
2023-03-02T23:41:21.950Z,3.40
2023-03-02T23:43:49.040Z,3.40
2023-03-02T23:46:16.000Z,3.30
2023-03-02T23:48:43.293Z,3.30
2023-03-02T23:51:10.771Z,3.30
2023-03-02T23:53:37.692Z,3.30
2023-03-02T23:56:04.938Z,3.30
2023-03-02T23:58:31.894Z,3.30
